Time;durP1;ratioP1;P1;durP2;ratioP2;P2;SDS_P1;SDS_P2;PMS_P1;PMS_P2;Temp;Humidity;BMP_temperature;BMP_pressure;BME280_temperature;BME280_humidity;BME280_pressure;Samples;Min_cycle;Max_cycle;Signal;HPM_P1;HPM_P2
2022/10/25 00:03:12;;;;;;;19.92;5.60;;;;;;;;;;10282398;28;20029;-74
2022/10/25 00:08:13;;;;;;;34.90;6.77;;;;;;;;;;10280128;28;20035;-75
2022/10/25 00:13:13;;;;;;;22.27;5.72;;;;;;;;;;10281191;28;20556;-74
2022/10/25 00:18:13;;;;;;;25.92;6.47;;;;;;;;;;10280928;28;20114;-76
2022/10/25 00:23:14;;;;;;;35.22;7.68;;;;;;;;;;10280270;28;20022;-79
2022/10/25 00:28:17;;;;;;;18.45;6.20;;;;;;;;;;10281086;28;20027;-85
2022/10/25 00:33:17;;;;;;;19.35;6.47;;;;;;;;;;10279427;28;20070;-80
2022/10/25 00:38:18;;;;;;;18.30;6.88;;;;;;;;;;10280000;28;20122;-76
2022/10/25 00:43:33;;;;;;;16.27;7.27;;;;;;;;;;10278974;28;20046;-78
2022/10/25 00:48:33;;;;;;;18.35;6.68;;;;;;;;;;10279442;28;20018;-75
2022/10/25 00:53:35;;;;;;;23.85;6.05;;;;;;;;;;10279824;28;20031;-82
2022/10/25 00:58:37;;;;;;;20.70;6.93;;;;;;;;;;10280086;28;20022;-81
2022/10/25 01:03:39;;;;;;;23.00;6.10;;;;;;;;;;10280444;28;20065;-76
2022/10/25 01:08:43;;;;;;;17.48;6.63;;;;;;;;;;10279881;28;20023;-83
2022/10/25 01:13:43;;;;;;;22.48;6.43;;;;;;;;;;10277421;28;20536;-73
2022/10/25 01:18:47;;;;;;;13.70;5.88;;;;;;;;;;10278724;28;20023;-74
2022/10/25 01:24:06;;;;;;;19.38;7.20;;;;;;;;;;10280440;28;20035;-80
2022/10/25 01:29:12;;;;;;;17.48;5.35;;;;;;;;;;10279056;28;20556;-75
2022/10/25 01:34:12;;;;;;;20.52;6.40;;;;;;;;;;10279321;28;20042;-78
2022/10/25 01:39:19;;;;;;;25.45;7.45;;;;;;;;;;10294560;28;20027;-71
2022/10/25 01:44:34;;;;;;;18.33;5.40;;;;;;;;;;10318347;28;20027;-75
2022/10/25 01:49:53;;;;;;;24.60;6.10;;;;;;;;;;10302818;28;20054;-75
2022/10/25 01:54:54;;;;;;;24.13;5.85;;;;;;;;;;10305070;28;20019;-78
2022/10/25 02:00:03;;;;;;;31.98;6.35;;;;;;;;;;10292793;28;20090;-76
2022/10/25 02:05:07;;;;;;;21.58;6.13;;;;;;;;;;10278349;28;20023;-80
2022/10/25 02:10:15;;;;;;;24.27;5.50;;;;;;;;;;10278576;28;20922;-78
2022/10/25 02:15:20;;;;;;;23.30;6.57;;;;;;;;;;10286729;28;20034;-78
2022/10/25 02:20:23;;;;;;;13.70;5.50;;;;;;;;;;10285095;28;20705;-80
2022/10/25 02:25:27;;;;;;;16.58;5.63;;;;;;;;;;10255802;28;20136;-81
2022/10/25 02:30:28;;;;;;;27.23;5.85;;;;;;;;;;10284369;28;20083;-78
2022/10/25 02:35:28;;;;;;;21.95;5.53;;;;;;;;;;10285736;28;20568;-81
2022/10/25 02:40:29;;;;;;;24.20;6.65;;;;;;;;;;10285859;28;20035;-80
2022/10/25 02:45:29;;;;;;;20.98;6.53;;;;;;;;;;10262510;28;20045;-77
2022/10/25 02:50:29;;;;;;;23.95;9.35;;;;;;;;;;10261350;28;20425;-72
2022/10/25 02:55:30;;;;;;;24.73;7.75;;;;;;;;;;10284500;28;20030;-78
2022/10/25 03:00:31;;;;;;;21.50;6.47;;;;;;;;;;10283873;28;20018;-77
2022/10/25 03:05:31;;;;;;;24.70;7.03;;;;;;;;;;10283840;28;20035;-74
2022/10/25 03:10:31;;;;;;;21.05;6.15;;;;;;;;;;10278558;28;20023;-78
2022/10/25 03:15:31;;;;;;;23.80;7.63;;;;;;;;;;10297429;28;20440;-75
2022/10/25 03:20:33;;;;;;;25.83;7.93;;;;;;;;;;10282484;28;20468;-77
2022/10/25 03:25:33;;;;;;;27.73;9.00;;;;;;;;;;10282995;28;20030;-81
2022/10/25 03:30:34;;;;;;;21.95;7.03;;;;;;;;;;10297391;28;20089;-72
2022/10/25 03:35:36;;;;;;;27.90;8.43;;;;;;;;;;10281389;28;20112;-80
2022/10/25 03:40:36;;;;;;;15.57;6.63;;;;;;;;;;10285150;28;20028;-74
2022/10/25 03:45:36;;;;;;;33.95;8.40;;;;;;;;;;10291945;28;20658;-79
2022/10/25 03:50:36;;;;;;;27.80;7.85;;;;;;;;;;10288952;28;20661;-76
2022/10/25 03:55:37;;;;;;;26.00;6.95;;;;;;;;;;10276152;28;20028;-82
2022/10/25 04:00:37;;;;;;;26.92;7.60;;;;;;;;;;10271984;28;20030;-79
2022/10/25 04:05:38;;;;;;;25.65;6.55;;;;;;;;;;10297753;28;20034;-74
2022/10/25 04:10:38;;;;;;;20.93;6.70;;;;;;;;;;10250274;28;20035;-77
2022/10/25 04:15:38;;;;;;;17.23;6.28;;;;;;;;;;10285598;28;20658;-74
2022/10/25 04:20:38;;;;;;;26.48;6.53;;;;;;;;;;10303327;28;20428;-76
2022/10/25 04:25:39;;;;;;;28.02;8.25;;;;;;;;;;10270677;28;20192;-77
2022/10/25 04:30:40;;;;;;;25.83;6.57;;;;;;;;;;10282721;28;20055;-77
2022/10/25 04:35:42;;;;;;;22.42;7.50;;;;;;;;;;10294294;28;20047;-81
2022/10/25 04:40:42;;;;;;;32.50;8.02;;;;;;;;;;10268915;28;20055;-82
2022/10/25 04:45:42;;;;;;;27.35;9.63;;;;;;;;;;10267288;28;20483;-82
2022/10/25 04:50:43;;;;;;;23.25;8.75;;;;;;;;;;10273241;28;20509;-77
2022/10/25 04:55:43;;;;;;;27.42;9.00;;;;;;;;;;10276240;28;20485;-76
2022/10/25 05:00:45;;;;;;;26.23;9.18;;;;;;;;;;10272419;28;20191;-74
2022/10/25 05:05:45;;;;;;;38.03;7.63;;;;;;;;;;10258363;28;20495;-77
2022/10/25 05:10:53;;;;;;;28.38;9.50;;;;;;;;;;10236955;28;20031;-82
2022/10/25 05:15:54;;;;;;;23.80;8.57;;;;;;;;;;10267075;28;20042;-76
2022/10/25 05:20:55;;;;;;;24.67;9.20;;;;;;;;;;10236917;28;20382;-73
2022/10/25 05:26:04;;;;;;;32.47;11.23;;;;;;;;;;10238559;28;20035;-79
2022/10/25 05:31:04;;;;;;;33.13;8.38;;;;;;;;;;10262421;28;20118;-75
2022/10/25 05:36:04;;;;;;;25.13;6.80;;;;;;;;;;10278101;28;20052;-81
2022/10/25 05:41:05;;;;;;;21.13;8.23;;;;;;;;;;10284593;28;20059;-79
2022/10/25 05:46:17;;;;;;;23.55;6.65;;;;;;;;;;10277281;28;20051;-78
2022/10/25 05:51:36;;;;;;;19.50;6.45;;;;;;;;;;10285246;28;20023;-74
2022/10/25 05:56:37;;;;;;;19.40;5.68;;;;;;;;;;10284822;28;20019;-83
2022/10/25 06:01:38;;;;;;;28.25;7.50;;;;;;;;;;10284477;28;20019;-78
2022/10/25 06:06:39;;;;;;;26.45;8.52;;;;;;;;;;10284681;28;20150;-74
2022/10/25 06:11:39;;;;;;;24.10;9.20;;;;;;;;;;10284354;28;20481;-76
2022/10/25 06:16:40;;;;;;;36.00;11.00;;;;;;;;;;10284690;28;20019;-74
2022/10/25 06:21:40;;;;;;;37.60;12.10;;;;;;;;;;10285382;28;20440;-78
2022/10/25 06:26:40;;;;;;;40.45;13.57;;;;;;;;;;10285320;28;20541;-77
2022/10/25 06:31:42;;;;;;;35.15;12.77;;;;;;;;;;10284928;28;20042;-81
2022/10/25 06:36:42;;;;;;;28.10;10.10;;;;;;;;;;10284018;28;20031;-81
2022/10/25 06:41:42;;;;;;;27.13;10.32;;;;;;;;;;10284573;28;20579;-77
2022/10/25 06:46:43;;;;;;;31.33;8.98;;;;;;;;;;10266732;28;20027;-81
2022/10/25 06:51:43;;;;;;;44.00;10.00;;;;;;;;;;10282981;28;20023;-79
2022/10/25 06:56:43;;;;;;;24.70;8.10;;;;;;;;;;10282379;28;20058;-79
2022/10/25 07:01:44;;;;;;;33.00;7.88;;;;;;;;;;10282935;28;20409;-79
2022/10/25 07:06:44;;;;;;;28.92;7.03;;;;;;;;;;10287209;28;20026;-77
2022/10/25 07:11:44;;;;;;;29.40;8.13;;;;;;;;;;10285249;28;20024;-79
2022/10/25 07:16:44;;;;;;;27.50;6.85;;;;;;;;;;10246319;28;20037;-80
2022/10/25 07:21:45;;;;;;;26.27;5.68;;;;;;;;;;10284612;28;20063;-76
2022/10/25 07:26:45;;;;;;;14.87;4.53;;;;;;;;;;10282725;28;20054;-79
2022/10/25 07:31:45;;;;;;;19.05;6.38;;;;;;;;;;10253513;28;20043;-74
2022/10/25 07:36:46;;;;;;;22.77;6.75;;;;;;;;;;10268668;28;20519;-83
2022/10/25 07:41:48;;;;;;;24.77;6.97;;;;;;;;;;10280953;28;20408;-76
2022/10/25 07:46:50;;;;;;;25.55;6.28;;;;;;;;;;10282504;28;20047;-80
2022/10/25 07:51:51;;;;;;;27.50;7.15;;;;;;;;;;10280679;28;20034;-79
2022/10/25 07:56:51;;;;;;;26.30;6.50;;;;;;;;;;10280738;28;20033;-76
2022/10/25 08:01:52;;;;;;;25.98;8.60;;;;;;;;;;10280455;28;20077;-79
2022/10/25 08:06:53;;;;;;;31.25;8.43;;;;;;;;;;10279850;28;20122;-80
2022/10/25 08:11:53;;;;;;;33.08;11.15;;;;;;;;;;10280552;28;20500;-80
2022/10/25 08:16:53;;;;;;;35.78;10.55;;;;;;;;;;10279847;28;20038;-76
2022/10/25 08:21:53;;;;;;;36.00;11.45;;;;;;;;;;10279233;28;20301;-72
2022/10/25 08:26:54;;;;;;;35.83;11.00;;;;;;;;;;10280782;28;20031;-78
2022/10/25 08:31:54;;;;;;;42.67;11.55;;;;;;;;;;10279484;28;20046;-83
2022/10/25 08:36:54;;;;;;;43.80;13.52;;;;;;;;;;10278380;28;20042;-76
2022/10/25 08:41:56;;;;;;;53.17;13.13;;;;;;;;;;10279627;28;20019;-78
2022/10/25 08:47:00;;;;;;;52.33;12.02;;;;;;;;;;10279616;28;20030;-78
2022/10/25 08:52:02;;;;;;;46.65;12.38;;;;;;;;;;10278420;28;20034;-79
2022/10/25 08:57:22;;;;;;;35.67;11.50;;;;;;;;;;10279766;28;20030;-83
2022/10/25 09:02:22;;;;;;;43.05;12.10;;;;;;;;;;10280147;28;20264;-74
2022/10/25 09:07:43;;;;;;;28.85;9.50;;;;;;;;;;10279475;28;20213;-78
2022/10/25 09:13:03;;;;;;;32.30;10.02;;;;;;;;;;10278138;28;20031;-82
2022/10/25 09:18:09;;;;;;;34.88;10.52;;;;;;;;;;10265070;28;20038;-83
2022/10/25 09:23:30;;;;;;;32.55;11.60;;;;;;;;;;10278705;28;20042;-79
2022/10/25 09:28:30;;;;;;;33.88;10.45;;;;;;;;;;10277123;28;20038;-75
2022/10/25 09:33:31;;;;;;;31.35;9.10;;;;;;;;;;10278117;28;20822;-80
2022/10/25 09:38:31;;;;;;;32.33;8.82;;;;;;;;;;10278352;28;20039;-82
2022/10/25 09:43:37;;;;;;;41.63;9.05;;;;;;;;;;10278959;28;20086;-80
2022/10/25 09:48:38;;;;;;;29.42;7.53;;;;;;;;;;10276906;28;20039;-75
2022/10/25 09:53:39;;;;;;;30.38;8.05;;;;;;;;;;10277841;28;20022;-80
2022/10/25 09:58:40;;;;;;;30.55;7.97;;;;;;;;;;10277112;28;20488;-81
2022/10/25 10:03:41;;;;;;;25.45;7.75;;;;;;;;;;10291023;28;20037;-74
2022/10/25 10:08:45;;;;;;;29.33;7.80;;;;;;;;;;10269395;28;20036;-79
2022/10/25 10:13:49;;;;;;;27.00;7.85;;;;;;;;;;10276811;28;20539;-77
2022/10/25 10:18:49;;;;;;;21.67;7.13;;;;;;;;;;10276576;28;20033;-79
2022/10/25 10:23:49;;;;;;;23.23;7.72;;;;;;;;;;10277899;28;20033;-81
2022/10/25 10:28:51;;;;;;;33.50;8.77;;;;;;;;;;10280590;28;20030;-79
2022/10/25 10:33:51;;;;;;;25.05;7.32;;;;;;;;;;10283816;28;20521;-75
2022/10/25 10:38:52;;;;;;;33.47;7.50;;;;;;;;;;10267691;28;20039;-79
2022/10/25 10:44:11;;;;;;;30.00;7.15;;;;;;;;;;10283432;28;20474;-77
2022/10/25 10:49:13;;;;;;;24.98;6.97;;;;;;;;;;10283435;28;20085;-77
2022/10/25 10:54:22;;;;;;;19.42;5.70;;;;;;;;;;10283753;28;20548;-80
2022/10/25 10:59:28;;;;;;;22.98;6.93;;;;;;;;;;10289609;28;20022;-83
2022/10/25 11:04:28;;;;;;;26.55;6.28;;;;;;;;;;10287168;28;20097;-82
2022/10/25 11:09:29;;;;;;;29.55;6.07;;;;;;;;;;10292462;28;20034;-81
2022/10/25 11:14:29;;;;;;;25.70;5.93;;;;;;;;;;10293660;28;20427;-79
2022/10/25 11:20:01;;;;;;;19.92;5.93;;;;;;;;;;10296473;28;20102;-83
2022/10/25 11:25:05;;;;;;;22.75;5.45;;;;;;;;;;10240107;28;20027;-78
2022/10/25 11:30:11;;;;;;;22.75;6.95;;;;;;;;;;10282865;28;20038;-76
2022/10/25 11:35:12;;;;;;;;;;;;;;;;;;10283823;28;20421;-75
2022/10/25 11:40:15;;;;;;;27.75;6.03;;;;;;;;;;10295017;28;19921;-81
2022/10/25 11:45:21;;;;;;;28.95;6.65;;;;;;;;;;10275246;28;20031;-78
2022/10/25 11:50:49;;;;;;;31.02;5.50;;;;;;;;;;10280993;28;20579;-76
2022/10/25 11:55:56;;;;;;;21.85;6.45;;;;;;;;;;10278967;28;20081;-80
2022/10/25 12:00:59;;;;;;;21.07;6.60;;;;;;;;;;10279856;28;20607;-76
2022/10/25 12:06:23;;;;;;;29.75;6.38;;;;;;;;;;10296022;28;20034;-75
2022/10/25 12:11:25;;;;;;;25.77;6.38;;;;;;;;;;10280342;28;20086;-81
2022/10/25 12:16:29;;;;;;;29.08;6.78;;;;;;;;;;10256401;28;20074;-83
2022/10/25 12:21:34;;;;;;;22.85;6.20;;;;;;;;;;10279575;28;20407;-78
2022/10/25 12:26:37;;;;;;;26.00;6.75;;;;;;;;;;10281023;28;20397;-79
2022/10/25 12:31:39;;;;;;;24.52;5.50;;;;;;;;;;10263160;28;20484;-79
2022/10/25 12:36:42;;;;;;;30.33;6.43;;;;;;;;;;10278929;28;20038;-78
2022/10/25 12:41:43;;;;;;;19.50;5.93;;;;;;;;;;10279162;28;20099;-80
2022/10/25 12:46:56;;;;;;;29.27;6.10;;;;;;;;;;10278669;28;20114;-85
2022/10/25 12:51:59;;;;;;;29.02;6.38;;;;;;;;;;10271710;28;20041;-81
2022/10/25 12:57:03;;;;;;;23.52;5.70;;;;;;;;;;10289479;28;20485;-76
2022/10/25 13:02:03;;;;;;;28.75;5.97;;;;;;;;;;10278410;28;20398;-80
2022/10/25 13:07:05;;;;;;;15.45;4.25;;;;;;;;;;10278530;28;20030;-75
2022/10/25 13:12:22;;;;;;;21.60;4.70;;;;;;;;;;10278003;28;20015;-80
2022/10/25 13:17:22;;;;;;;21.13;5.70;;;;;;;;;;10278381;28;20019;-79
2022/10/25 13:22:33;;;;;;;23.83;5.03;;;;;;;;;;10265706;28;20019;-75
2022/10/25 13:27:34;;;;;;;26.83;5.07;;;;;;;;;;10265496;28;20041;-76
2022/10/25 13:32:35;;;;;;;21.63;4.60;;;;;;;;;;10273815;28;20217;-75
2022/10/25 13:37:37;;;;;;;22.92;4.85;;;;;;;;;;10282714;28;20093;-78
2022/10/25 13:42:37;;;;;;;24.17;4.97;;;;;;;;;;10264669;28;20038;-80
2022/10/25 13:47:51;;;;;;;31.13;5.00;;;;;;;;;;10267922;28;20516;-78
2022/10/25 13:52:55;;;;;;;26.75;4.57;;;;;;;;;;10277778;28;20528;-75
2022/10/25 13:57:56;;;;;;;24.15;5.10;;;;;;;;;;10278400;28;20158;-75
2022/10/25 14:03:02;;;;;;;26.80;4.47;;;;;;;;;;10270817;28;20035;-79
2022/10/25 14:08:13;;;;;;;19.00;5.15;;;;;;;;;;10267302;28;20035;-80
2022/10/25 14:13:25;;;;;;;31.38;7.30;;;;;;;;;;10271977;28;20034;-76
2022/10/25 14:18:27;;;;;;;40.53;6.50;;;;;;;;;;10267629;28;20102;-74
2022/10/25 14:23:29;;;;;;;26.48;6.15;;;;;;;;;;10254139;28;20117;-79
2022/10/25 14:28:34;;;;;;;29.63;7.00;;;;;;;;;;10269501;28;20450;-78
2022/10/25 14:33:36;;;;;;;36.67;7.07;;;;;;;;;;10273723;28;20043;-83
2022/10/25 14:38:48;;;;;;;29.73;7.30;;;;;;;;;;10270795;28;20103;-79
2022/10/25 14:43:49;;;;;;;22.95;6.40;;;;;;;;;;10283589;28;20022;-82
2022/10/25 14:48:54;;;;;;;31.75;7.13;;;;;;;;;;10283570;28;20034;-82
2022/10/25 14:54:01;;;;;;;35.97;5.82;;;;;;;;;;10266706;28;20065;-79
2022/10/25 14:59:02;;;;;;;23.85;5.68;;;;;;;;;;10282495;28;20085;-78
2022/10/25 15:04:02;;;;;;;29.40;7.93;;;;;;;;;;10283141;28;20045;-81
2022/10/25 15:09:04;;;;;;;28.60;8.37;;;;;;;;;;10270007;28;20039;-81
2022/10/25 15:14:13;;;;;;;37.50;9.13;;;;;;;;;;10266065;28;20031;-76
2022/10/25 15:19:14;;;;;;;31.17;8.52;;;;;;;;;;10242063;29;20121;-75
2022/10/25 15:24:19;;;;;;;43.08;9.48;;;;;;;;;;10275473;28;20019;-74
2022/10/25 15:29:38;;;;;;;26.38;7.32;;;;;;;;;;10264336;28;20228;-75
2022/10/25 15:34:40;;;;;;;34.70;7.47;;;;;;;;;;10271863;28;20142;-78
2022/10/25 15:39:40;;;;;;;47.08;9.30;;;;;;;;;;10271784;28;20043;-79
2022/10/25 15:44:41;;;;;;;32.67;7.90;;;;;;;;;;10281196;28;20045;-75
2022/10/25 15:49:41;;;;;;;35.65;6.43;;;;;;;;;;10263846;28;20679;-74
2022/10/25 15:54:42;;;;;;;35.90;8.98;;;;;;;;;;10298022;28;20404;-77
2022/10/25 15:59:43;;;;;;;33.90;9.00;;;;;;;;;;10266541;28;20028;-78
2022/10/25 16:04:43;;;;;;;47.63;8.30;;;;;;;;;;10280492;28;20474;-78
2022/10/25 16:09:43;;;;;;;37.50;8.83;;;;;;;;;;10285326;28;20033;-74
2022/10/25 16:14:44;;;;;;;32.73;7.10;;;;;;;;;;10281955;28;20038;-81
2022/10/25 16:19:44;;;;;;;26.23;6.00;;;;;;;;;;10283342;28;20103;-77
2022/10/25 16:24:45;;;;;;;49.72;8.52;;;;;;;;;;10280590;28;20481;-79
2022/10/25 16:29:45;;;;;;;30.67;6.00;;;;;;;;;;10266470;28;20470;-74
2022/10/25 16:34:46;;;;;;;41.33;6.53;;;;;;;;;;10267621;28;20109;-79
2022/10/25 16:39:47;;;;;;;23.58;5.93;;;;;;;;;;10284238;28;20513;-74
2022/10/25 16:44:48;;;;;;;24.40;5.22;;;;;;;;;;10278652;28;20034;-73
2022/10/25 16:49:49;;;;;;;30.80;7.25;;;;;;;;;;10281988;28;20038;-76
2022/10/25 16:54:50;;;;;;;29.00;5.78;;;;;;;;;;10264871;28;20043;-77
2022/10/25 16:59:52;;;;;;;25.00;5.43;;;;;;;;;;10264250;28;20042;-76
2022/10/25 17:04:52;;;;;;;33.55;5.82;;;;;;;;;;10257941;28;20023;-77
2022/10/25 17:09:55;;;;;;;25.00;5.80;;;;;;;;;;10260634;28;20030;-82
2022/10/25 17:14:56;;;;;;;31.38;6.18;;;;;;;;;;10276178;28;20026;-80
2022/10/25 17:19:56;;;;;;;32.20;5.82;;;;;;;;;;10250108;28;20034;-76
2022/10/25 17:24:59;;;;;;;20.55;5.95;;;;;;;;;;10271066;28;20046;-80
2022/10/25 17:30:02;;;;;;;19.95;6.60;;;;;;;;;;10260573;28;20039;-77
2022/10/25 17:35:07;;;;;;;26.83;5.80;;;;;;;;;;10267942;28;20049;-80
2022/10/25 17:40:10;;;;;;;38.15;7.15;;;;;;;;;;10271342;28;20564;-79
2022/10/25 17:45:13;;;;;;;42.13;9.10;;;;;;;;;;10272893;28;20490;-81
2022/10/25 17:50:16;;;;;;;39.08;8.50;;;;;;;;;;10278176;28;20027;-77
2022/10/25 17:55:16;;;;;;;29.23;7.57;;;;;;;;;;10270835;28;20066;-81
2022/10/25 18:00:17;;;;;;;29.65;6.75;;;;;;;;;;10268329;28;20122;-79
2022/10/25 18:05:18;;;;;;;24.93;5.73;;;;;;;;;;10287296;28;20034;-78
2022/10/25 18:10:18;;;;;;;36.63;8.00;;;;;;;;;;10272154;28;20035;-81
2022/10/25 18:15:18;;;;;;;31.70;6.80;;;;;;;;;;10265702;28;20038;-77
2022/10/25 18:20:21;;;;;;;24.55;7.38;;;;;;;;;;10283693;28;20066;-77
2022/10/25 18:25:21;;;;;;;25.10;7.20;;;;;;;;;;10278994;28;20023;-75
2022/10/25 18:30:22;;;;;;;36.28;7.28;;;;;;;;;;10287000;28;20043;-75
2022/10/25 18:35:22;;;;;;;24.23;6.85;;;;;;;;;;10280219;28;20611;-80
2022/10/25 18:40:23;;;;;;;20.38;6.72;;;;;;;;;;10271573;28;20027;-76
2022/10/25 18:45:24;;;;;;;14.85;6.13;;;;;;;;;;10275236;28;20109;-80
2022/10/25 18:50:24;;;;;;;29.40;6.88;;;;;;;;;;10268260;28;20038;-79
2022/10/25 18:55:25;;;;;;;19.33;6.13;;;;;;;;;;10249584;28;20129;-77
2022/10/25 19:00:27;;;;;;;24.45;5.13;;;;;;;;;;10268984;28;20071;-80
2022/10/25 19:05:28;;;;;;;25.17;6.80;;;;;;;;;;10270662;28;20078;-74
2022/10/25 19:10:28;;;;;;;29.40;6.13;;;;;;;;;;10262130;28;20019;-75
2022/10/25 19:15:28;;;;;;;16.40;5.47;;;;;;;;;;10275882;28;20235;-73
2022/10/25 19:20:28;;;;;;;19.30;4.93;;;;;;;;;;10278326;28;20108;-76
2022/10/25 19:25:30;;;;;;;23.65;6.35;;;;;;;;;;10274074;28;20101;-77
2022/10/25 19:30:30;;;;;;;22.73;5.30;;;;;;;;;;10265625;28;20043;-73
2022/10/25 19:35:31;;;;;;;28.13;5.10;;;;;;;;;;10267582;28;20592;-74
2022/10/25 19:40:31;;;;;;;23.55;5.18;;;;;;;;;;10268783;28;20611;-75
2022/10/25 19:45:31;;;;;;;26.50;5.03;;;;;;;;;;10261477;28;20030;-75
2022/10/25 19:50:32;;;;;;;20.07;6.30;;;;;;;;;;10266417;28;20273;-80
2022/10/25 19:55:32;;;;;;;21.90;4.65;;;;;;;;;;10263626;28;20031;-74
2022/10/25 20:00:33;;;;;;;23.92;6.28;;;;;;;;;;10277910;28;20042;-80
2022/10/25 20:05:33;;;;;;;22.93;5.83;;;;;;;;;;10266371;28;20031;-79
2022/10/25 20:10:33;;;;;;;18.25;4.70;;;;;;;;;;10269715;28;20517;-76
2022/10/25 20:15:33;;;;;;;21.90;5.25;;;;;;;;;;10276304;28;20556;-79
2022/10/25 20:20:35;;;;;;;21.42;4.85;;;;;;;;;;10266104;28;20061;-74
2022/10/25 20:36:12;;;;;;;18.38;5.13;;;;;;;;;;12864704;22;1374487;-74
2022/10/25 20:41:13;;;;;;;17.67;5.25;;;;;;;;;;12850356;23;20009;-75
2022/10/25 20:46:13;;;;;;;32.92;6.85;;;;;;;;;;12831956;23;20095;-77
2022/10/25 20:51:15;;;;;;;13.93;5.60;;;;;;;;;;12832908;23;20020;-75
2022/10/25 20:56:16;;;;;;;19.23;6.05;;;;;;;;;;12832046;23;20019;-75
2022/10/25 21:01:16;;;;;;;21.65;5.85;;;;;;;;;;12832349;23;20535;-72
2022/10/25 21:06:18;;;;;;;17.30;6.63;;;;;;;;;;12836736;23;20099;-74
2022/10/25 21:11:18;;;;;;;23.38;6.78;;;;;;;;;;12855428;23;20326;-73
2022/10/25 21:16:18;;;;;;;24.40;7.73;;;;;;;;;;12856413;22;19996;-73
2022/10/25 21:21:19;;;;;;;18.30;5.53;;;;;;;;;;12858384;22;20464;-83
2022/10/25 21:26:19;;;;;;;17.30;5.47;;;;;;;;;;12860475;22;20057;-80
2022/10/25 21:31:19;;;;;;;20.02;6.10;;;;;;;;;;12860229;23;20091;-81
2022/10/25 21:36:20;;;;;;;14.63;5.80;;;;;;;;;;12849758;22;20368;-78
2022/10/25 21:41:25;;;;;;;22.10;6.47;;;;;;;;;;12869845;23;20355;-79
2022/10/25 21:46:27;;;;;;;12.30;5.75;;;;;;;;;;12933381;22;20372;-82
2022/10/25 21:51:27;;;;;;;26.63;7.10;;;;;;;;;;12922032;22;20060;-72
2022/10/25 21:56:28;;;;;;;18.20;6.25;;;;;;;;;;12922832;23;20003;-72
2022/10/25 22:01:29;;;;;;;24.15;6.18;;;;;;;;;;12927097;22;20004;-75
2022/10/25 22:06:29;;;;;;;14.75;5.65;;;;;;;;;;12912093;23;20071;-74
2022/10/25 22:11:31;;;;;;;15.73;5.75;;;;;;;;;;12933786;23;19996;-79
2022/10/25 22:16:32;;;;;;;23.75;6.13;;;;;;;;;;12917315;23;19996;-74
2022/10/25 22:21:35;;;;;;;14.98;4.90;;;;;;;;;;12908001;22;20004;-79
2022/10/25 22:26:36;;;;;;;20.05;6.18;;;;;;;;;;12908255;22;20000;-77
2022/10/25 22:31:36;;;;;;;21.83;5.78;;;;;;;;;;12907653;23;20012;-78
2022/10/25 22:36:38;;;;;;;24.40;6.20;;;;;;;;;;12908156;23;19992;-74
2022/10/25 22:41:38;;;;;;;27.95;6.50;;;;;;;;;;12917667;23;20436;-79
2022/10/25 22:46:38;;;;;;;24.20;6.23;;;;;;;;;;12907077;23;19992;-74
2022/10/25 22:51:38;;;;;;;16.90;5.40;;;;;;;;;;12930069;22;19996;-77
2022/10/25 22:56:39;;;;;;;13.63;6.20;;;;;;;;;;12916439;23;20558;-77
2022/10/25 23:01:39;;;;;;;21.35;5.68;;;;;;;;;;12907301;22;19996;-79
2022/10/25 23:06:39;;;;;;;15.70;5.67;;;;;;;;;;12906253;22;20085;-77
2022/10/25 23:11:40;;;;;;;16.35;5.38;;;;;;;;;;12907354;22;20742;-79
2022/10/25 23:16:40;;;;;;;15.00;6.55;;;;;;;;;;12907666;22;20042;-81
2022/10/25 23:21:40;;;;;;;16.95;6.03;;;;;;;;;;12928731;22;19996;-74
2022/10/25 23:26:41;;;;;;;12.75;6.25;;;;;;;;;;12906589;23;19988;-80
2022/10/25 23:31:41;;;;;;;15.40;6.07;;;;;;;;;;12907379;22;19992;-79
2022/10/25 23:36:41;;;;;;;15.60;5.13;;;;;;;;;;12906818;22;20447;-80
2022/10/25 23:41:42;;;;;;;10.70;5.80;;;;;;;;;;12906299;22;20022;-80
2022/10/25 23:46:43;;;;;;;16.33;5.55;;;;;;;;;;12908710;22;20242;-74
2022/10/25 23:51:43;;;;;;;17.25;6.63;;;;;;;;;;12906639;23;19996;-78
2022/10/25 23:56:44;;;;;;;14.20;6.65;;;;;;;;;;12906807;22;20046;-79
